Overview Statistics Trail Chart Weather Telemetry Raw packets
 

This is the latest recevied weather packets stored in our database for station/object OM5ZU-10. If no packets are shown the sender has not sent any weather packets the latest 10 day(s).

<< 18 19 20 21 22 23 24 >>
Time Temp. Humidity Pressure Rain* Wind** Luminosity Snow
1788140999 13.89° C 82% 1015.3 hPa - - - -
1788140099 14.44° C 80% 1015.2 hPa - - - -
1788139199 13.89° C 81% 1015.3 hPa - - - -
1788138299 13.89° C 80% 1015.3 hPa - - - -
1788137399 14.44° C 78% 1015.3 hPa - - - -
1788136499 15° C 76% 1015.3 hPa - - - -
1788135598 15° C 75% 1015.4 hPa - - - -
1788134698 15.56° C 74% 1015.3 hPa - - - -
1788133798 16.11° C 71% 1015.4 hPa - - - -
1788132898 16.67° C 69% 1015.2 hPa - - - -
1788131998 17.78° C 65% 1015.3 hPa - - - -
1788131098 17.78° C 66% 1015.3 hPa - - - -
1788130197 17.22° C 70% 1015.4 hPa - - - -
1788129297 17.22° C 68% 1015.4 hPa - - - -
1788128397 16.67° C 71% 1015.3 hPa - - - -
1788127497 16.67° C 71% 1015.4 hPa - - - -
1788126597 17.78° C 67% 1015.3 hPa - - - -
1788125697 18.33° C 64% 1015.3 hPa - - - -
1788124797 18.33° C 64% 1015.2 hPa - - - -
1788123896 17.78° C 65% 1015.1 hPa - - - -
1788122996 17.78° C 67% 1015.2 hPa - - - -
1788122096 18.33° C 65% 1015 hPa - - - -
1788121196 18.33° C 64% 1015 hPa - - - -
1788120296 18.33° C 65% 1015 hPa - - - -
1788119396 17.78° C 68% 1014.9 hPa - - - -

* Rain since midnight (hover to see other rain measurements)
** Current wind speed in m/s (hover to see current wind gust speed)